Terminal Aerodrome Forecast
Issued by NWS

Home | Current Version | Previous Version | Text Only | Print | Product List | Glossary On
Versions: 1 2 3 4 5 6 7 8 9 10 11 12 13 14 15 16 17 18 19 20 21
803
FTUS43 KGRR 021731
TAFAZO
TAF
KAZO 021731Z 0218/0318 04005KT P6SM VCSH OVC025
     FM021930 03006KT P6SM VCSH OVC040
     FM022145 02004KT P6SM BKN045
     FM030500 05004KT P6SM SCT070=

USA.gov is the U.S. government's official web portal to all federal, state and local government web resources and services.